UPS1078 KLAX-KORD
Flight info
| Callsign | UPS1078 |
|---|---|
| Flight time | N/A |
| Altitude | 35000 |
| Route | DOTSS2 CLEEE PKE J96 CIM/N0477F370 SLN IRK BENKY6 |
| Aircraft | MD11/H-SDE1E2E3FGHIJ2J3J4J5M1RWXY/LB1D1 |
Departure
| Time | 2026-05-05 17:44 |
|---|---|
| Airport | Los Angeles International Airport (KLAX) |
Arrival
| Time | N/A |
|---|---|
| Airport | Chicago O'Hare International Airport (KORD) |
| Time | Latitude | Longitude | Altitude | Speed | Heading |
|---|---|---|---|---|---|
| 2026-05-05 17:23 | 33.94613 | -118.40978 | 126 ft | 0 kts | 295° |
| 2026-05-05 17:33 | 33.94613 | -118.40977 | 127 ft | 1 kts | 295° |
| 2026-05-05 17:33 | 33.94603 | -118.40952 | 126 ft | 2 kts | 295° |
| 2026-05-05 17:33 | 33.94598 | -118.40940 | 126 ft | 1 kts | 299° |
| 2026-05-05 17:33 | 33.94593 | -118.40931 | 126 ft | 1 kts | 310° |
| 2026-05-05 17:34 | 33.94587 | -118.40923 | 126 ft | 1 kts | 328° |
| 2026-05-05 17:34 | 33.94580 | -118.40919 | 126 ft | 1 kts | 344° |
| 2026-05-05 17:34 | 33.94573 | -118.40917 | 126 ft | 1 kts | 359° |
| 2026-05-05 17:34 | 33.94566 | -118.40918 | 126 ft | 1 kts | 14° |
| 2026-05-05 17:35 | 33.94559 | -118.40920 | 126 ft | 0 kts | 23° |
| 2026-05-05 17:35 | 33.94557 | -118.40922 | 126 ft | 0 kts | 25° |
| 2026-05-05 17:35 | 33.94556 | -118.40922 | 126 ft | 0 kts | 25° |
| 2026-05-05 17:35 | 33.94557 | -118.40922 | 126 ft | 0 kts | 25° |
| 2026-05-05 17:36 | 33.94569 | -118.40915 | 126 ft | 3 kts | 25° |
| 2026-05-05 17:36 | 33.94601 | -118.40904 | 126 ft | 5 kts | 2° |
| 2026-05-05 17:36 | 33.94642 | -118.40906 | 126 ft | 0 kts | 355° |
| 2026-05-05 17:37 | 33.94643 | -118.40906 | 126 ft | 0 kts | 355° |
| 2026-05-05 17:37 | 33.94661 | -118.40908 | 126 ft | 4 kts | 355° |
| 2026-05-05 17:38 | 33.94707 | -118.40913 | 126 ft | 7 kts | 1° |
| 2026-05-05 17:38 | 33.94776 | -118.40900 | 127 ft | 12 kts | 9° |
| 2026-05-05 17:38 | 33.94839 | -118.40843 | 128 ft | 12 kts | 70° |
| 2026-05-05 17:38 | 33.94852 | -118.40736 | 126 ft | 14 kts | 84° |
| 2026-05-05 17:39 | 33.94867 | -118.40600 | 125 ft | 17 kts | 83° |
| 2026-05-05 17:39 | 33.94881 | -118.40452 | 124 ft | 19 kts | 83° |
| 2026-05-05 17:39 | 33.94896 | -118.40293 | 121 ft | 12 kts | 83° |
| 2026-05-05 17:39 | 33.94908 | -118.40182 | 121 ft | 14 kts | 83° |
| 2026-05-05 17:40 | 33.94921 | -118.40051 | 119 ft | 13 kts | 84° |
| 2026-05-05 17:40 | 33.94939 | -118.39954 | 118 ft | 11 kts | 62° |
| 2026-05-05 17:40 | 33.95010 | -118.39928 | 117 ft | 7 kts | 2° |
| 2026-05-05 17:40 | 33.95036 | -118.39947 | 117 ft | 3 kts | 289° |
| 2026-05-05 17:41 | 33.95037 | -118.39963 | 118 ft | 0 kts | 270° |
| 2026-05-05 17:41 | 33.95037 | -118.39964 | 118 ft | 0 kts | 270° |
| 2026-05-05 17:42 | 33.95037 | -118.39968 | 118 ft | 0 kts | 270° |
| 2026-05-05 17:42 | 33.95037 | -118.39971 | 118 ft | 0 kts | 269° |
| 2026-05-05 17:43 | 33.95036 | -118.40009 | 118 ft | 22 kts | 266° |
| 2026-05-05 17:43 | 33.94988 | -118.40486 | 125 ft | 90 kts | 263° |
| 2026-05-05 17:43 | 33.94893 | -118.41439 | 128 ft | 140 kts | 262° |
| 2026-05-05 17:43 | 33.94752 | -118.42755 | 312 ft | 163 kts | 262° |
| 2026-05-05 17:44 | 33.94665 | -118.44103 | 780 ft | 167 kts | 271° |
| 2026-05-05 17:44 | 33.94609 | -118.45494 | 1346 ft | 168 kts | 264° |
| 2026-05-05 17:44 | 33.94463 | -118.46892 | 1805 ft | 174 kts | 263° |
| 2026-05-05 17:44 | 33.94327 | -118.48409 | 2064 ft | 193 kts | 265° |
| 2026-05-05 17:45 | 33.94226 | -118.50116 | 2342 ft | 218 kts | 266° |
| 2026-05-05 17:45 | 33.94119 | -118.52032 | 2769 ft | 240 kts | 266° |
| 2026-05-05 17:45 | 33.93977 | -118.54102 | 3480 ft | 255 kts | 265° |
| 2026-05-05 17:45 | 33.93804 | -118.56242 | 4352 ft | 264 kts | 265° |
| 2026-05-05 17:46 | 33.93617 | -118.58457 | 5282 ft | 271 kts | 266° |
| 2026-05-05 17:46 | 33.93285 | -118.60662 | 6187 ft | 276 kts | 252° |
| 2026-05-05 17:46 | 33.92342 | -118.62682 | 7136 ft | 281 kts | 228° |
| 2026-05-05 17:46 | 33.90780 | -118.64062 | 8060 ft | 286 kts | 203° |
| 2026-05-05 17:47 | 33.88838 | -118.64541 | 8961 ft | 290 kts | 181° |
| 2026-05-05 17:47 | 33.86811 | -118.64390 | 9848 ft | 296 kts | 174° |
| 2026-05-05 17:47 | 33.84763 | -118.63941 | 10453 ft | 314 kts | 164° |
| 2026-05-05 17:47 | 33.82650 | -118.62908 | 10737 ft | 342 kts | 152° |
| 2026-05-05 17:48 | 33.80551 | -118.61302 | 10998 ft | 372 kts | 145° |
| 2026-05-05 17:48 | 33.78378 | -118.59376 | 11271 ft | 399 kts | 143° |
| 2026-05-05 17:48 | 33.76118 | -118.57367 | 12010 ft | 412 kts | 144° |
| 2026-05-05 17:48 | 33.73783 | -118.55369 | 12894 ft | 420 kts | 145° |
| 2026-05-05 17:49 | 33.71491 | -118.53197 | 13799 ft | 426 kts | 137° |
| 2026-05-05 17:49 | 33.69523 | -118.50478 | 14742 ft | 432 kts | 124° |
| 2026-05-05 17:49 | 33.68080 | -118.47321 | 15669 ft | 436 kts | 112° |
| 2026-05-05 17:49 | 33.67036 | -118.43939 | 16593 ft | 440 kts | 108° |
| 2026-05-05 17:50 | 33.66100 | -118.40447 | 17472 ft | 446 kts | 107° |
| 2026-05-05 17:50 | 33.65213 | -118.36878 | 18338 ft | 450 kts | 103° |
| 2026-05-05 17:50 | 33.64601 | -118.33192 | 19214 ft | 454 kts | 97° |
| 2026-05-05 17:50 | 33.64368 | -118.29436 | 20053 ft | 458 kts | 91° |
| 2026-05-05 17:51 | 33.64343 | -118.25575 | 20857 ft | 463 kts | 89° |
| 2026-05-05 17:51 | 33.64390 | -118.21741 | 21646 ft | 468 kts | 88° |
| 2026-05-05 17:51 | 33.64439 | -118.17834 | 22420 ft | 473 kts | 89° |
| 2026-05-05 17:51 | 33.64453 | -118.13873 | 23176 ft | 478 kts | 89° |
| 2026-05-05 17:52 | 33.64444 | -118.09919 | 23896 ft | 483 kts | 89° |
| 2026-05-05 17:52 | 33.64426 | -118.05846 | 24553 ft | 488 kts | 89° |
| 2026-05-05 17:52 | 33.64410 | -118.01739 | 25195 ft | 493 kts | 89° |
| 2026-05-05 17:52 | 33.64402 | -117.97624 | 25795 ft | 498 kts | 89° |
| 2026-05-05 17:53 | 33.64405 | -117.93439 | 26367 ft | 503 kts | 89° |
| 2026-05-05 17:53 | 33.64407 | -117.89294 | 26991 ft | 507 kts | 89° |
| 2026-05-05 17:53 | 33.64403 | -117.85075 | 27700 ft | 508 kts | 89° |